createdAt,value
2023-02-19T00:00:31.543Z,79.16
2023-02-19T00:01:31.844Z,79.16
2023-02-19T00:02:32.156Z,79.05
2023-02-19T00:03:32.419Z,79.25
2023-02-19T00:04:32.766Z,79.36
2023-02-19T00:05:32.969Z,79.50
2023-02-19T00:06:33.288Z,79.60
2023-02-19T00:07:33.604Z,79.60
2023-02-19T00:08:33.837Z,79.70
2023-02-19T00:09:34.184Z,79.70
2023-02-19T00:10:34.441Z,79.80
2023-02-19T00:11:34.751Z,79.70
2023-02-19T00:12:35.003Z,79.80
2023-02-19T00:13:35.299Z,79.77
2023-02-19T00:14:35.554Z,79.66
2023-02-19T00:15:35.875Z,79.57
2023-02-19T00:16:36.072Z,79.46
2023-02-19T00:17:36.414Z,79.25
2023-02-19T00:18:36.648Z,79.36
2023-02-19T00:19:36.862Z,79.46
2023-02-19T00:20:37.086Z,79.36
2023-02-19T00:21:37.428Z,79.25
2023-02-19T00:22:37.700Z,79.60
2023-02-19T00:23:37.971Z,79.91
2023-02-19T00:24:38.235Z,79.80
2023-02-19T00:25:38.514Z,79.87
2023-02-19T00:26:38.816Z,79.80
2023-02-19T00:27:39.051Z,80.01
2023-02-19T00:28:39.332Z,79.91
2023-02-19T00:29:39.673Z,79.77
2023-02-19T00:30:39.894Z,79.77
2023-02-19T00:31:41.125Z,79.77
2023-02-19T00:32:40.502Z,79.80
2023-02-19T00:33:40.877Z,80.01
2023-02-19T00:34:41.093Z,80.01
2023-02-19T00:35:41.439Z,80.11
2023-02-19T00:36:41.822Z,80.21
2023-02-19T00:37:42.023Z,80.21
2023-02-19T00:38:42.304Z,80.21
2023-02-19T00:39:42.658Z,80.21
2023-02-19T00:40:42.832Z,80.32
2023-02-19T00:41:43.111Z,80.01
2023-02-19T00:42:43.415Z,79.87
2023-02-19T00:43:43.739Z,80.01
2023-02-19T00:44:43.967Z,80.21
2023-02-19T00:45:44.216Z,80.21
2023-02-19T00:46:44.500Z,80.21
2023-02-19T00:47:44.836Z,80.32
2023-02-19T00:48:45.127Z,80.21
2023-02-19T00:49:45.439Z,80.52
2023-02-19T00:50:45.632Z,80.52
2023-02-19T00:51:45.891Z,80.32
2023-02-19T00:52:46.150Z,80.32
2023-02-19T00:53:46.493Z,80.18
2023-02-19T00:54:46.759Z,80.18
2023-02-19T00:55:47.093Z,80.32
2023-02-19T00:56:47.410Z,80.32
2023-02-19T00:57:47.718Z,80.73
2023-02-19T00:58:48.053Z,80.83
2023-02-19T00:59:48.353Z,81.13
2023-02-19T01:00:48.595Z,81.13
2023-02-19T01:01:48.896Z,81.03
2023-02-19T01:02:49.190Z,81.24
2023-02-19T01:03:49.502Z,81.34
2023-02-19T01:04:49.832Z,81.13
2023-02-19T01:05:50.163Z,81.03
2023-02-19T01:06:50.436Z,81.03
2023-02-19T01:07:50.651Z,81.13
2023-02-19T01:08:50.981Z,81.24
2023-02-19T01:09:51.322Z,81.44
2023-02-19T01:10:51.543Z,81.68
2023-02-19T01:11:51.849Z,81.88
2023-02-19T01:12:52.164Z,81.85
2023-02-19T01:13:52.453Z,81.65
2023-02-19T01:14:52.786Z,81.85
2023-02-19T01:15:53.109Z,81.74
2023-02-19T01:16:53.266Z,81.88
2023-02-19T01:17:53.539Z,81.85
2023-02-19T01:18:53.799Z,81.85
2023-02-19T01:19:54.212Z,81.85
2023-02-19T01:20:54.398Z,81.95
2023-02-19T01:21:54.722Z,81.95
2023-02-19T01:22:55.036Z,82.09
2023-02-19T01:23:55.355Z,82.40
2023-02-19T01:24:55.654Z,82.40
2023-02-19T01:25:55.944Z,82.50
2023-02-19T01:26:56.193Z,82.50
2023-02-19T01:27:56.493Z,82.50
2023-02-19T01:28:56.764Z,82.60
2023-02-19T01:29:57.082Z,82.70
2023-02-19T01:30:57.393Z,82.91
2023-02-19T01:31:57.782Z,83.73
2023-02-19T01:32:57.935Z,84.24
2023-02-19T01:33:58.228Z,84.95
2023-02-19T01:34:58.516Z,85.47
2023-02-19T01:35:58.859Z,85.77
2023-02-19T01:36:59.144Z,85.67
2023-02-19T01:37:59.490Z,85.97
2023-02-19T01:38:59.665Z,85.57
2023-02-19T01:39:59.992Z,85.97
2023-02-19T01:41:00.198Z,85.81
2023-02-19T01:42:00.573Z,85.91
2023-02-19T01:43:00.878Z,85.77
2023-02-19T01:44:01.174Z,85.88
2023-02-19T01:45:01.528Z,85.67
2023-02-19T01:46:01.804Z,85.88
2023-02-19T01:47:02.198Z,85.88
2023-02-19T01:48:02.392Z,85.88
2023-02-19T01:49:02.697Z,86.22
2023-02-19T01:50:03.049Z,86.02
2023-02-19T01:51:03.218Z,86.22
2023-02-19T01:52:03.554Z,86.32
2023-02-19T01:53:03.816Z,86.22
2023-02-19T01:54:04.184Z,86.32
2023-02-19T01:55:04.571Z,86.53
2023-02-19T01:56:04.789Z,86.83
2023-02-19T01:57:05.127Z,86.94
2023-02-19T01:58:05.465Z,87.04
2023-02-19T01:59:05.795Z,87.04
2023-02-19T02:00:06.111Z,87.18
2023-02-19T02:01:06.327Z,87.38
2023-02-19T02:02:06.698Z,87.38
2023-02-19T02:03:06.890Z,87.59
2023-02-19T02:04:07.193Z,87.90
2023-02-19T02:05:07.455Z,88.20
2023-02-19T02:06:07.792Z,88.31
2023-02-19T02:07:08.037Z,88.51
2023-02-19T02:08:08.353Z,88.51
2023-02-19T02:09:08.627Z,88.82
2023-02-19T02:10:08.861Z,88.51
2023-02-19T02:11:09.623Z,88.62
2023-02-19T02:12:09.855Z,88.41
2023-02-19T02:13:09.656Z,88.71
2023-02-19T02:14:10.033Z,88.86
2023-02-19T02:15:10.350Z,89.06
2023-02-19T02:16:10.706Z,89.17
2023-02-19T02:17:10.910Z,89.12
2023-02-19T02:18:11.236Z,88.71
2023-02-19T02:19:11.543Z,89.06
2023-02-19T02:20:11.850Z,89.17
2023-02-19T02:21:12.287Z,89.37
2023-02-19T02:22:12.563Z,89.27
2023-02-19T02:23:12.787Z,88.92
2023-02-19T02:24:13.065Z,88.86
2023-02-19T02:25:13.336Z,89.06
2023-02-19T02:26:13.740Z,88.96
2023-02-19T02:27:13.958Z,88.82
2023-02-19T02:28:14.345Z,88.62
2023-02-19T02:29:14.471Z,88.51
2023-02-19T02:30:14.878Z,88.65
2023-02-19T02:31:15.263Z,88.82
2023-02-19T02:32:15.432Z,88.41
2023-02-19T02:33:15.735Z,88.62
2023-02-19T02:34:16.063Z,88.41
2023-02-19T02:35:16.352Z,88.10
2023-02-19T02:36:16.689Z,88.31
2023-02-19T02:37:17.002Z,88.35
2023-02-19T02:38:17.312Z,88.51
2023-02-19T02:39:17.628Z,88.41
2023-02-19T02:40:17.824Z,88.41
2023-02-19T02:41:18.020Z,88.56
2023-02-19T02:42:18.346Z,88.65
2023-02-19T02:43:18.659Z,88.51
2023-02-19T02:44:18.964Z,88.41
2023-02-19T02:45:19.243Z,88.20
2023-02-19T02:46:19.559Z,88.00
2023-02-19T02:47:19.825Z,88.00
2023-02-19T02:48:20.093Z,88.00
2023-02-19T02:49:20.410Z,88.10
2023-02-19T02:50:20.694Z,88.10
2023-02-19T02:51:20.992Z,87.90
2023-02-19T02:52:21.335Z,87.79
2023-02-19T02:53:21.521Z,87.70
2023-02-19T02:54:21.880Z,87.65
2023-02-19T02:55:22.166Z,87.79
2023-02-19T02:56:22.425Z,88.00
2023-02-19T02:57:22.765Z,88.20
2023-02-19T02:58:23.072Z,88.10
2023-02-19T02:59:23.324Z,88.10
2023-02-19T03:00:23.619Z,88.20
2023-02-19T03:01:23.965Z,88.51
2023-02-19T03:02:24.340Z,88.86
2023-02-19T03:03:24.454Z,89.06
2023-02-19T03:04:24.823Z,89.03
2023-02-19T03:05:25.041Z,88.92
2023-02-19T03:06:25.363Z,88.62
2023-02-19T03:07:25.658Z,88.71
2023-02-19T03:08:25.969Z,88.92
2023-02-19T03:09:26.261Z,88.92
2023-02-19T03:10:26.553Z,88.71
2023-02-19T03:11:26.843Z,88.71
2023-02-19T03:12:27.172Z,89.12
2023-02-19T03:13:27.464Z,89.37
2023-02-19T03:14:27.801Z,89.68
2023-02-19T03:15:28.031Z,89.89
2023-02-19T03:16:28.338Z,89.89
2023-02-19T03:17:28.585Z,89.78
2023-02-19T03:18:28.911Z,89.89
2023-02-19T03:19:29.193Z,89.78
2023-02-19T03:20:29.633Z,89.37
2023-02-19T03:21:29.780Z,89.47
2023-02-19T03:22:30.147Z,89.47
2023-02-19T03:23:30.453Z,89.58
2023-02-19T03:24:30.827Z,89.47
2023-02-19T03:25:31.055Z,89.47
2023-02-19T03:26:31.377Z,89.58
2023-02-19T03:27:31.607Z,89.89
2023-02-19T03:28:31.927Z,89.89
2023-02-19T03:29:32.262Z,89.78
2023-02-19T03:30:32.513Z,89.53
2023-02-19T03:31:32.800Z,89.37
2023-02-19T03:32:33.009Z,89.68
2023-02-19T03:33:33.311Z,89.98
2023-02-19T03:34:33.682Z,90.19
2023-02-19T03:35:33.842Z,90.39
2023-02-19T03:36:34.156Z,90.39
2023-02-19T03:37:34.472Z,90.30
2023-02-19T03:38:34.752Z,90.09
2023-02-19T03:39:35.044Z,90.09
2023-02-19T03:40:35.407Z,90.30
2023-02-19T03:41:35.649Z,90.30
2023-02-19T03:42:35.961Z,90.19
2023-02-19T03:43:36.239Z,89.89
2023-02-19T03:44:36.587Z,89.89
2023-02-19T03:45:36.847Z,90.09
2023-02-19T03:46:37.219Z,89.98
2023-02-19T03:47:37.430Z,89.78
2023-02-19T03:48:37.757Z,89.89
2023-02-19T03:49:38.026Z,89.98
2023-02-19T03:50:38.370Z,89.78
2023-02-19T03:51:38.711Z,89.68
2023-02-19T03:52:38.921Z,89.58
2023-02-19T03:53:39.202Z,89.23
2023-02-19T03:54:39.468Z,88.92
2023-02-19T03:55:39.815Z,88.92
2023-02-19T03:56:40.173Z,88.92
2023-02-19T03:57:40.346Z,88.96
2023-02-19T03:58:40.661Z,88.82
2023-02-19T03:59:40.952Z,88.86
2023-02-19T04:00:41.260Z,88.96
2023-02-19T04:01:41.564Z,88.82
2023-02-19T04:02:41.890Z,88.86
2023-02-19T04:03:42.162Z,89.17
2023-02-19T04:04:42.545Z,89.17
2023-02-19T04:05:42.767Z,89.27
2023-02-19T04:06:43.060Z,89.17
2023-02-19T04:07:43.330Z,88.92
2023-02-19T04:08:43.678Z,88.96
2023-02-19T04:09:43.929Z,89.27
2023-02-19T04:10:44.175Z,89.37
2023-02-19T04:11:44.448Z,89.37
2023-02-19T04:12:44.775Z,89.47
2023-02-19T04:13:45.076Z,89.47
2023-02-19T04:14:45.420Z,89.37
2023-02-19T04:15:45.562Z,89.27
2023-02-19T04:16:45.958Z,89.17
2023-02-19T04:17:46.279Z,89.03
2023-02-19T04:18:46.569Z,88.92
2023-02-19T04:19:46.860Z,88.71
2023-02-19T04:20:47.178Z,88.62
2023-02-19T04:21:47.468Z,88.71
2023-02-19T04:22:47.777Z,88.71
2023-02-19T04:23:48.053Z,88.96
2023-02-19T04:24:48.361Z,89.06
2023-02-19T04:25:48.664Z,89.27
2023-02-19T04:26:48.948Z,89.27
2023-02-19T04:27:49.261Z,89.06
2023-02-19T04:28:49.515Z,88.82
2023-02-19T04:29:49.838Z,88.62
2023-02-19T04:30:50.229Z,88.51
2023-02-19T04:31:50.429Z,88.41
2023-02-19T04:32:50.787Z,88.31
2023-02-19T04:33:51.092Z,88.41
2023-02-19T04:34:53.357Z,88.31
2023-02-19T04:35:51.672Z,88.51
2023-02-19T04:36:51.953Z,88.62
2023-02-19T04:37:52.266Z,88.82
2023-02-19T04:38:52.551Z,89.23
2023-02-19T04:39:52.815Z,89.53
2023-02-19T04:40:53.169Z,89.53
2023-02-19T04:41:53.404Z,89.53
2023-02-19T04:42:53.756Z,89.64
2023-02-19T04:43:54.063Z,89.53
2023-02-19T04:44:54.378Z,89.64
2023-02-19T04:45:54.703Z,89.64
2023-02-19T04:46:54.979Z,89.33
2023-02-19T04:47:55.279Z,89.23
2023-02-19T04:48:55.587Z,89.53
2023-02-19T04:49:55.860Z,89.64
2023-02-19T04:50:56.226Z,89.53
2023-02-19T04:51:56.501Z,89.33
2023-02-19T04:52:56.838Z,89.06
2023-02-19T04:53:57.094Z,89.12
2023-02-19T04:54:57.419Z,89.06
2023-02-19T04:55:57.642Z,88.92
2023-02-19T04:56:57.955Z,88.92
2023-02-19T04:57:58.259Z,88.82
2023-02-19T04:58:58.569Z,88.92
2023-02-19T04:59:58.873Z,88.51
2023-02-19T05:00:59.158Z,88.51
2023-02-19T05:01:59.864Z,88.51
2023-02-19T05:02:59.726Z,88.71
2023-02-19T05:04:00.113Z,88.71
2023-02-19T05:05:00.404Z,88.51
2023-02-19T05:06:00.702Z,88.51
2023-02-19T05:07:00.976Z,88.20
2023-02-19T05:08:01.300Z,88.41
2023-02-19T05:09:01.632Z,88.71
2023-02-19T05:10:01.970Z,88.71
2023-02-19T05:11:02.137Z,88.82
2023-02-19T05:12:02.452Z,88.82
2023-02-19T05:13:02.766Z,88.98
2023-02-19T05:14:03.079Z,88.92
2023-02-19T05:15:03.394Z,89.43
2023-02-19T05:16:03.853Z,89.78
2023-02-19T05:17:04.014Z,89.98
2023-02-19T05:18:04.354Z,89.89
2023-02-19T05:19:04.647Z,90.09
2023-02-19T05:20:04.926Z,90.39
2023-02-19T05:21:05.275Z,90.81
2023-02-19T05:22:05.572Z,91.11
2023-02-19T05:23:05.914Z,91.11
2023-02-19T05:24:06.200Z,90.70
2023-02-19T05:25:06.500Z,90.81
2023-02-19T05:26:06.778Z,90.91
2023-02-19T05:27:07.149Z,91.42
2023-02-19T05:28:07.468Z,91.22
2023-02-19T05:29:07.756Z,91.52
2023-02-19T05:30:08.067Z,91.42
2023-02-19T05:31:08.656Z,91.22
2023-02-19T05:32:08.765Z,91.11
2023-02-19T05:33:09.013Z,91.31
2023-02-19T05:34:09.189Z,91.22
2023-02-19T05:35:09.473Z,91.42
2023-02-19T05:36:09.761Z,91.73
2023-02-19T05:37:10.060Z,91.63
2023-02-19T05:38:10.342Z,91.58
2023-02-19T05:39:10.675Z,91.31
2023-02-19T05:40:11.030Z,91.42
2023-02-19T05:41:11.539Z,91.42
2023-02-19T05:42:11.446Z,91.73
2023-02-19T05:43:11.769Z,91.83
2023-02-19T05:44:12.034Z,91.83
2023-02-19T05:45:12.407Z,91.93
2023-02-19T05:46:12.721Z,92.03
2023-02-19T05:47:13.019Z,92.24
2023-02-19T05:48:13.369Z,92.28
2023-02-19T05:49:13.647Z,92.49
2023-02-19T05:50:13.960Z,92.79
2023-02-19T05:51:14.280Z,93.10
2023-02-19T05:52:14.559Z,92.90
2023-02-19T05:53:14.861Z,93.20
2023-02-19T05:54:15.114Z,93.30
2023-02-19T05:55:15.473Z,93.30
2023-02-19T05:56:15.666Z,93.30
2023-02-19T05:57:16.011Z,93.10
2023-02-19T05:58:16.303Z,93.30
2023-02-19T05:59:16.533Z,93.62
2023-02-19T06:00:16.836Z,93.82
2023-02-19T06:01:17.140Z,94.23
2023-02-19T06:02:17.417Z,94.23
2023-02-19T06:03:17.721Z,94.74
2023-02-19T06:04:17.934Z,94.89
2023-02-19T06:05:18.160Z,95.20
2023-02-19T06:06:18.360Z,95.50
2023-02-19T06:07:18.737Z,95.70
2023-02-19T06:08:18.943Z,95.40
2023-02-19T06:09:19.344Z,95.61
2023-02-19T06:10:19.490Z,95.81
2023-02-19T06:11:19.848Z,95.40
2023-02-19T06:12:20.035Z,95.40
2023-02-19T06:13:20.310Z,95.40
2023-02-19T06:14:20.557Z,95.50
2023-02-19T06:15:20.800Z,95.50
2023-02-19T06:16:21.004Z,95.40
2023-02-19T06:17:21.373Z,95.29
2023-02-19T06:18:21.581Z,95.40
2023-02-19T06:19:21.947Z,94.89
2023-02-19T06:20:22.187Z,94.68
2023-02-19T06:21:22.468Z,94.58
2023-02-19T06:22:22.666Z,94.48
2023-02-19T06:23:22.946Z,94.27
2023-02-19T06:24:23.638Z,94.27
2023-02-19T06:25:23.460Z,94.17
2023-02-19T06:26:23.672Z,93.92
2023-02-19T06:27:24.020Z,93.51
2023-02-19T06:28:24.220Z,93.62
2023-02-19T06:29:24.600Z,93.10
2023-02-19T06:30:24.900Z,93.00
2023-02-19T06:31:25.586Z,92.90
2023-02-19T06:32:25.513Z,92.59
2023-02-19T06:33:25.774Z,92.59
2023-02-19T06:34:26.461Z,92.59
2023-02-19T06:35:26.289Z,91.97
2023-02-19T06:36:26.529Z,91.77
2023-02-19T06:37:26.783Z,91.67
2023-02-19T06:38:27.072Z,91.67
2023-02-19T06:39:27.268Z,91.42
2023-02-19T06:40:27.478Z,90.91
2023-02-19T06:41:27.845Z,90.60
2023-02-19T06:42:28.085Z,90.09
2023-02-19T06:43:28.350Z,89.27
2023-02-19T06:44:28.579Z,89.06
2023-02-19T06:45:28.952Z,88.65
2023-02-19T06:46:29.235Z,88.31
2023-02-19T06:47:29.541Z,88.41
2023-02-19T06:48:29.710Z,88.20
2023-02-19T06:49:30.073Z,87.79
2023-02-19T06:50:30.341Z,87.18
2023-02-19T06:51:30.586Z,87.08
2023-02-19T06:52:30.784Z,86.67
2023-02-19T06:53:31.144Z,86.77
2023-02-19T06:54:31.368Z,86.88
2023-02-19T06:55:31.735Z,86.73
2023-02-19T06:56:31.988Z,86.57
2023-02-19T06:57:32.227Z,86.26
2023-02-19T06:58:32.473Z,86.22
2023-02-19T06:59:33.213Z,85.91
2023-02-19T07:00:33.035Z,85.40
2023-02-19T07:01:33.255Z,85.30
2023-02-19T07:02:33.482Z,85.30
2023-02-19T07:03:33.754Z,84.99
2023-02-19T07:04:33.977Z,85.10
2023-02-19T07:05:34.329Z,84.99
2023-02-19T07:06:34.550Z,84.89
2023-02-19T07:07:34.840Z,84.99
2023-02-19T07:08:35.170Z,84.89
2023-02-19T07:09:35.482Z,84.48
2023-02-19T07:10:35.683Z,84.38
2023-02-19T07:11:35.939Z,83.87
2023-02-19T07:12:36.184Z,83.87
2023-02-19T07:13:36.453Z,83.56
2023-02-19T07:14:36.687Z,83.56
2023-02-19T07:15:36.994Z,83.76
2023-02-19T07:16:37.226Z,83.56
2023-02-19T07:17:37.467Z,83.56
2023-02-19T07:18:37.731Z,83.32
2023-02-19T07:19:38.027Z,83.32
2023-02-19T07:20:38.240Z,83.22
2023-02-19T07:21:38.524Z,83.01
2023-02-19T07:22:38.755Z,83.22
2023-02-19T07:23:39.017Z,83.22
2023-02-19T07:24:39.255Z,83.11
2023-02-19T07:25:39.566Z,82.81
2023-02-19T07:26:39.722Z,82.91
2023-02-19T07:27:40.119Z,82.81
2023-02-19T07:28:40.335Z,82.70
2023-02-19T07:29:40.718Z,82.70
2023-02-19T07:30:40.947Z,82.91
2023-02-19T07:31:41.343Z,82.50
2023-02-19T07:32:41.554Z,82.40
2023-02-19T07:33:41.832Z,82.60
2023-02-19T07:34:42.075Z,81.99
2023-02-19T07:35:42.452Z,82.29
2023-02-19T07:36:42.659Z,82.29
2023-02-19T07:37:43.061Z,81.88
2023-02-19T07:38:43.272Z,81.79
2023-02-19T07:39:43.514Z,82.09
2023-02-19T07:40:43.755Z,82.09
2023-02-19T07:41:44.039Z,82.26
2023-02-19T07:42:44.224Z,81.54
2023-02-19T07:43:44.650Z,81.68
2023-02-19T07:44:44.838Z,82.36
2023-02-19T07:45:45.245Z,81.79
2023-02-19T07:46:45.412Z,81.88
2023-02-19T07:47:45.781Z,81.68
2023-02-19T07:48:46.063Z,81.79
2023-02-19T07:49:46.258Z,81.68
2023-02-19T07:50:46.472Z,81.99
2023-02-19T07:51:46.859Z,81.54
2023-02-19T07:52:47.117Z,82.05
2023-02-19T07:53:47.362Z,81.34
2023-02-19T07:54:47.571Z,81.34
2023-02-19T07:55:47.957Z,81.65
2023-02-19T07:56:48.176Z,81.65
2023-02-19T07:57:48.590Z,81.13
2023-02-19T07:58:48.800Z,80.93
2023-02-19T07:59:49.196Z,81.13
2023-02-19T08:00:49.468Z,81.03
2023-02-19T08:01:49.690Z,80.58
2023-02-19T08:02:49.928Z,80.48
2023-02-19T08:03:50.579Z,80.48
2023-02-19T08:04:50.387Z,80.28
2023-02-19T08:05:50.760Z,80.38
2023-02-19T08:06:50.995Z,80.28
2023-02-19T08:07:51.217Z,80.18
2023-02-19T08:08:51.629Z,80.18
2023-02-19T08:09:51.858Z,80.18
2023-02-19T08:10:52.173Z,80.18
2023-02-19T08:11:52.422Z,80.18
2023-02-19T08:12:52.619Z,79.87
2023-02-19T08:13:52.862Z,79.97
2023-02-19T08:14:53.169Z,80.07
2023-02-19T08:15:54.258Z,80.69
2023-02-19T08:16:53.744Z,80.07
2023-02-19T08:17:53.943Z,79.87
2023-02-19T08:18:54.218Z,79.97
2023-02-19T08:19:54.509Z,79.97
2023-02-19T08:20:54.705Z,80.07
2023-02-19T08:21:55.124Z,80.07
2023-02-19T08:22:55.211Z,80.07
2023-02-19T08:23:55.491Z,79.66
2023-02-19T08:24:55.737Z,79.57
2023-02-19T08:25:56.010Z,80.07
2023-02-19T08:26:56.289Z,79.97
2023-02-19T08:27:56.532Z,79.77
2023-02-19T08:28:56.757Z,80.07
2023-02-19T08:29:57.162Z,79.57
2023-02-19T08:30:57.448Z,79.73
2023-02-19T08:31:57.708Z,79.43
2023-02-19T08:32:57.875Z,79.05
2023-02-19T08:33:58.314Z,78.85
2023-02-19T08:34:58.572Z,78.91
2023-02-19T08:35:58.781Z,78.71
2023-02-19T08:36:59.009Z,78.71
2023-02-19T08:37:59.931Z,78.71
2023-02-19T08:38:59.651Z,78.41
2023-02-19T08:39:59.887Z,78.61
2023-02-19T08:41:00.134Z,78.71
2023-02-19T08:42:00.404Z,78.71
2023-02-19T08:43:00.624Z,78.30
2023-02-19T08:44:00.894Z,78.00
2023-02-19T08:45:01.158Z,77.89
2023-02-19T08:46:01.430Z,78.09
2023-02-19T08:47:01.634Z,78.30
2023-02-19T08:48:01.947Z,78.16
2023-02-19T08:49:02.166Z,77.75
2023-02-19T08:50:02.586Z,77.55
2023-02-19T08:51:02.785Z,77.55
2023-02-19T08:52:03.142Z,77.75
2023-02-19T08:53:03.430Z,77.89
2023-02-19T08:54:03.646Z,78.41
2023-02-19T08:55:03.912Z,78.06
2023-02-19T08:56:04.128Z,77.45
2023-02-19T08:57:04.379Z,77.34
2023-02-19T08:58:04.615Z,76.93
2023-02-19T08:59:04.873Z,77.04
2023-02-19T09:00:05.118Z,76.59
2023-02-19T09:01:05.460Z,76.19
2023-02-19T09:02:05.715Z,76.39
2023-02-19T09:03:06.025Z,76.59
2023-02-19T09:04:06.261Z,76.09
2023-02-19T09:05:06.471Z,75.68
2023-02-19T09:06:06.775Z,76.09
2023-02-19T09:07:06.978Z,75.68
2023-02-19T09:08:07.214Z,75.98
2023-02-19T09:09:07.471Z,75.68
2023-02-19T09:10:07.732Z,75.57
2023-02-19T09:11:08.011Z,75.54
2023-02-19T09:12:08.248Z,75.34
2023-02-19T09:13:08.526Z,75.03
2023-02-19T09:14:08.785Z,75.78
2023-02-19T09:15:09.041Z,75.78
2023-02-19T09:16:09.261Z,75.57
2023-02-19T09:17:09.601Z,75.57
2023-02-19T09:18:09.891Z,75.48
2023-02-19T09:19:10.142Z,75.34
2023-02-19T09:20:10.437Z,75.54
2023-02-19T09:21:11.093Z,75.44
2023-02-19T09:22:11.019Z,75.68
2023-02-19T09:23:11.349Z,75.48
2023-02-19T09:24:11.694Z,75.37
2023-02-19T09:25:11.897Z,75.78
2023-02-19T09:26:12.186Z,75.64
2023-02-19T09:27:12.426Z,75.78
2023-02-19T09:28:12.708Z,75.34
2023-02-19T09:29:12.887Z,75.57
2023-02-19T09:30:13.195Z,75.78
2023-02-19T09:31:13.863Z,75.88
2023-02-19T09:32:13.799Z,76.09
2023-02-19T09:33:13.922Z,75.88
2023-02-19T09:34:14.177Z,75.48
2023-02-19T09:35:14.463Z,75.37
2023-02-19T09:36:14.734Z,75.37
2023-02-19T09:37:14.977Z,75.48
2023-02-19T09:38:15.259Z,75.57
2023-02-19T09:39:15.503Z,75.68
2023-02-19T09:40:15.760Z,75.54
2023-02-19T09:41:16.017Z,75.34
2023-02-19T09:42:16.316Z,75.34
2023-02-19T09:43:16.540Z,75.13
2023-02-19T09:44:16.782Z,75.03
2023-02-19T09:45:17.036Z,74.73
2023-02-19T09:46:17.523Z,74.73
2023-02-19T09:47:17.768Z,74.73
2023-02-19T09:48:18.019Z,74.93
2023-02-19T09:49:18.276Z,74.93
2023-02-19T09:50:18.487Z,74.83
2023-02-19T09:51:18.724Z,74.28
2023-02-19T09:52:19.092Z,74.28
2023-02-19T09:53:19.374Z,74.38
2023-02-19T09:54:19.630Z,74.18
2023-02-19T09:55:19.884Z,73.57
2023-02-19T09:56:20.153Z,73.19
2023-02-19T09:57:20.414Z,73.30
2023-02-19T09:58:20.693Z,73.19
2023-02-19T09:59:20.939Z,73.57
2023-02-19T10:00:21.223Z,73.81
2023-02-19T10:01:21.473Z,73.71
2023-02-19T10:02:21.764Z,74.01
2023-02-19T10:03:22.023Z,74.01
2023-02-19T10:04:22.268Z,73.81
2023-02-19T10:05:22.661Z,73.47
2023-02-19T10:06:22.868Z,73.36
2023-02-19T10:07:23.201Z,73.71
2023-02-19T10:08:23.421Z,73.81
2023-02-19T10:09:23.676Z,73.97
2023-02-19T10:10:23.949Z,73.88
2023-02-19T10:11:24.194Z,73.77
2023-02-19T10:12:24.508Z,73.88
2023-02-19T10:13:24.722Z,73.67
2023-02-19T10:14:25.026Z,73.47
2023-02-19T10:15:25.247Z,73.26
2023-02-19T10:16:25.478Z,73.43
2023-02-19T10:17:25.715Z,73.13
2023-02-19T10:18:26.078Z,73.13
2023-02-19T10:19:26.382Z,72.72
2023-02-19T10:20:26.637Z,72.62
2023-02-19T10:21:26.870Z,72.62
2023-02-19T10:22:27.142Z,72.72
2023-02-19T10:23:27.476Z,72.52
2023-02-19T10:24:27.752Z,72.31
2023-02-19T10:25:27.959Z,71.87
2023-02-19T10:26:28.236Z,71.56
2023-02-19T10:27:28.519Z,71.47
2023-02-19T10:28:28.880Z,71.09
2023-02-19T10:29:29.068Z,71.19
2023-02-19T10:30:29.382Z,70.28
2023-02-19T10:31:29.609Z,70.68
2023-02-19T10:32:29.837Z,70.17
2023-02-19T10:33:30.131Z,70.48
2023-02-19T10:34:30.726Z,70.17
2023-02-19T10:35:30.710Z,70.14
2023-02-19T10:36:32.314Z,69.63
2023-02-19T10:37:31.240Z,69.63
2023-02-19T10:38:31.524Z,69.63
2023-02-19T10:39:31.767Z,69.84
2023-02-19T10:40:32.064Z,69.29
2023-02-19T10:41:32.315Z,69.29
2023-02-19T10:42:32.631Z,68.99
2023-02-19T10:43:32.870Z,68.79
2023-02-19T10:44:33.140Z,68.79
2023-02-19T10:45:33.457Z,68.92
2023-02-19T10:46:33.698Z,68.92
2023-02-19T10:47:33.946Z,68.82
2023-02-19T10:48:34.198Z,68.51
2023-02-19T10:49:34.471Z,68.41
2023-02-19T10:50:34.741Z,68.51
2023-02-19T10:51:35.032Z,68.27
2023-02-19T10:52:35.359Z,68.18
2023-02-19T10:53:35.574Z,67.66
2023-02-19T10:54:35.843Z,67.77
2023-02-19T10:55:37.936Z,67.66
2023-02-19T10:56:36.352Z,67.36
2023-02-19T10:57:36.586Z,67.36
2023-02-19T10:58:36.864Z,67.33
2023-02-19T10:59:37.105Z,67.13
2023-02-19T11:00:37.386Z,67.13
2023-02-19T11:01:37.657Z,66.58
2023-02-19T11:02:37.939Z,66.38
2023-02-19T11:03:38.223Z,66.28
2023-02-19T11:04:38.533Z,65.97
2023-02-19T11:05:38.733Z,65.74
2023-02-19T11:06:39.006Z,64.90
2023-02-19T11:07:39.277Z,64.29
2023-02-19T11:08:39.571Z,64.18
2023-02-19T11:09:39.836Z,64.73
2023-02-19T11:10:40.067Z,64.83
2023-02-19T11:11:40.295Z,64.59
2023-02-19T11:12:40.568Z,64.36
2023-02-19T11:13:40.848Z,63.85
2023-02-19T11:14:41.136Z,63.34
2023-02-19T11:15:41.349Z,63.55
2023-02-19T11:16:41.713Z,63.65
2023-02-19T11:17:41.997Z,64.09
2023-02-19T11:18:42.261Z,64.15
2023-02-19T11:19:42.492Z,64.26
2023-02-19T11:20:42.755Z,63.85
2023-02-19T11:21:43.052Z,63.75
2023-02-19T11:22:43.318Z,63.75
2023-02-19T11:23:43.534Z,63.95
2023-02-19T11:24:43.802Z,63.85
2023-02-19T11:25:44.047Z,64.06
2023-02-19T11:26:44.312Z,63.88
2023-02-19T11:27:44.600Z,64.15
2023-02-19T11:28:44.915Z,64.06
2023-02-19T11:29:45.104Z,64.06
2023-02-19T11:30:45.368Z,63.65
2023-02-19T11:31:45.671Z,63.34
2023-02-19T11:32:45.900Z,63.45
2023-02-19T11:33:46.186Z,63.45
2023-02-19T11:34:46.518Z,63.48
2023-02-19T11:35:46.835Z,64.12
2023-02-19T11:36:47.040Z,64.83
2023-02-19T11:37:47.255Z,65.33
2023-02-19T11:38:47.520Z,65.13
2023-02-19T11:39:47.852Z,64.73
2023-02-19T11:40:48.141Z,64.76
2023-02-19T11:41:48.270Z,64.96
2023-02-19T11:42:48.517Z,65.36
2023-02-19T11:43:48.835Z,65.57
2023-02-19T11:44:49.119Z,65.57
2023-02-19T11:45:49.341Z,65.16
2023-02-19T11:46:49.647Z,65.06
2023-02-19T11:47:49.853Z,64.45
2023-02-19T11:48:50.095Z,64.65
2023-02-19T11:49:50.381Z,64.22
2023-02-19T11:50:50.721Z,63.34
2023-02-19T11:51:52.725Z,62.40
2023-02-19T11:52:51.192Z,61.87
2023-02-19T11:53:51.460Z,61.63
2023-02-19T11:54:51.792Z,61.20
2023-02-19T11:55:52.043Z,60.46
2023-02-19T11:56:52.420Z,59.72
2023-02-19T11:57:52.586Z,59.32
2023-02-19T11:58:52.889Z,59.32
2023-02-19T11:59:53.090Z,59.42
2023-02-19T12:00:53.432Z,58.99
2023-02-19T12:01:53.734Z,58.69
2023-02-19T12:02:53.988Z,58.92
2023-02-19T12:03:54.260Z,59.45
2023-02-19T12:04:54.566Z,59.75
2023-02-19T12:05:54.765Z,60.06
2023-02-19T12:06:55.491Z,59.99
2023-02-19T12:07:55.333Z,60.62
2023-02-19T12:08:55.624Z,61.23
2023-02-19T12:09:55.871Z,60.52
2023-02-19T12:10:56.183Z,60.28
2023-02-19T12:11:56.492Z,60.28
2023-02-19T12:12:56.754Z,60.28
2023-02-19T12:13:57.102Z,60.21
2023-02-19T12:14:57.387Z,60.31
2023-02-19T12:15:57.585Z,60.62
2023-02-19T12:16:57.836Z,60.82
2023-02-19T12:17:58.078Z,61.05
2023-02-19T12:18:58.482Z,61.56
2023-02-19T12:19:58.676Z,61.79
2023-02-19T12:20:58.950Z,62.30
2023-02-19T12:21:59.211Z,62.91
2023-02-19T12:22:59.531Z,62.94
2023-02-19T12:23:59.828Z,63.04
2023-02-19T12:25:00.109Z,63.24
2023-02-19T12:26:00.352Z,63.04
2023-02-19T12:27:00.608Z,62.74
2023-02-19T12:28:00.825Z,62.94
2023-02-19T12:29:01.221Z,62.94
2023-02-19T12:30:01.467Z,63.28
2023-02-19T12:31:01.798Z,63.28
2023-02-19T12:32:02.098Z,63.40
2023-02-19T12:33:02.318Z,63.71
2023-02-19T12:34:02.583Z,63.81
2023-02-19T12:35:02.868Z,63.81
2023-02-19T12:36:03.144Z,63.91
2023-02-19T12:37:03.421Z,64.01
2023-02-19T12:38:03.736Z,64.12
2023-02-19T12:39:03.983Z,64.42
2023-02-19T12:40:04.243Z,64.62
2023-02-19T12:41:04.499Z,64.73
2023-02-19T12:42:04.736Z,64.42
2023-02-19T12:43:05.070Z,64.32
2023-02-19T12:44:05.318Z,64.32
2023-02-19T12:45:05.619Z,64.18
2023-02-19T12:46:05.955Z,64.18
2023-02-19T12:47:06.204Z,63.88
2023-02-19T12:48:06.475Z,63.88
2023-02-19T12:49:06.781Z,63.78
2023-02-19T12:50:06.996Z,63.68
2023-02-19T12:51:07.297Z,63.65
2023-02-19T12:52:07.517Z,63.45
2023-02-19T12:53:07.766Z,63.28
2023-02-19T12:54:08.072Z,63.37
2023-02-19T12:55:08.331Z,63.28
2023-02-19T12:56:08.724Z,63.48